Time;durP1;ratioP1;P1;durP2;ratioP2;P2;SDS_P1;SDS_P2;PMS_P1;PMS_P2;Temp;Humidity;BMP_temperature;BMP_pressure;BME280_temperature;BME280_humidity;BME280_pressure;Samples;Min_cycle;Max_cycle;Signal;HPM_P1;HPM_P2
2022/06/10 00:00:30;;;;;;;4.18;0.88;;;14.80;88.90;;;;;;5035802;28;20116;-60
2022/06/10 00:02:55;;;;;;;4.88;0.88;;;14.90;88.90;;;;;;5038034;28;20074;-60
2022/06/10 00:05:26;;;;;;;2.22;0.60;;;14.90;88.90;;;;;;5033851;28;20029;-60
2022/06/10 00:07:52;;;;;;;1.45;0.73;;;14.90;88.90;;;;;;5035749;28;20033;-60
2022/06/10 00:10:21;;;;;;;3.65;0.73;;;14.90;89.10;;;;;;5057541;28;20056;-60
2022/06/10 00:12:48;;;;;;;1.63;0.77;;;14.80;89.20;;;;;;5034518;28;20060;-60
2022/06/10 00:15:14;;;;;;;2.40;0.80;;;14.90;89.50;;;;;;5029848;28;20057;-60
2022/06/10 00:17:39;;;;;;;4.45;0.88;;;14.80;89.60;;;;;;5034125;28;20033;-60
2022/06/10 00:20:06;;;;;;;2.63;0.85;;;14.80;90.00;;;;;;5032722;28;20036;-60
2022/06/10 00:22:32;;;;;;;2.67;0.75;;;14.70;90.00;;;;;;5035496;28;20025;-60
2022/06/10 00:24:58;;;;;;;3.95;1.80;;;14.70;90.20;;;;;;5031563;28;20021;-60
2022/06/10 00:27:23;;;;;;;4.30;1.30;;;14.60;90.70;;;;;;5035862;28;20032;-60
2022/06/10 00:29:49;;;;;;;5.93;1.55;;;14.50;90.90;;;;;;5033280;28;20485;-60
2022/06/10 00:32:17;;;;;;;9.15;1.80;;;14.40;91.10;;;;;;5036727;28;20033;-60
2022/06/10 00:34:43;;;;;;;2.63;0.95;;;14.30;91.20;;;;;;5036657;28;20108;-60
2022/06/10 00:37:08;;;;;;;2.65;1.17;;;14.30;91.30;;;;;;5035959;28;20556;-60
2022/06/10 00:39:34;;;;;;;3.85;1.23;;;14.20;91.40;;;;;;5037369;28;20076;-60
2022/06/10 00:42:02;;;;;;;5.38;1.98;;;14.10;91.70;;;;;;5038821;28;20120;-60
2022/06/10 00:44:38;;;;;;;3.03;1.65;;;14.00;92.00;;;;;;5035779;28;20025;-60
2022/06/10 00:47:14;;;;;;;7.88;2.53;;;14.00;92.10;;;;;;5032269;28;20531;-60
2022/06/10 00:49:41;;;;;;;5.38;2.03;;;13.90;92.40;;;;;;5034312;28;20067;-60
2022/06/10 00:52:15;;;;;;;5.22;1.90;;;13.90;92.60;;;;;;5030873;28;20033;-59
2022/06/10 00:54:44;;;;;;;5.25;1.65;;;13.80;92.70;;;;;;5033773;28;20480;-60
2022/06/10 00:57:13;;;;;;;7.30;2.67;;;13.80;92.90;;;;;;5037053;28;20524;-60
2022/06/10 00:59:42;;;;;;;6.55;2.30;;;13.70;93.20;;;;;;5030890;28;20584;-61
2022/06/10 01:02:12;;;;;;;6.35;2.63;;;13.70;93.50;;;;;;5029076;28;20022;-59
2022/06/10 01:04:40;;;;;;;7.97;2.97;;;13.60;93.90;;;;;;5028435;28;20029;-59
2022/06/10 01:07:07;;;;;;;7.85;3.95;;;13.60;94.30;;;;;;5038825;28;20032;-59
2022/06/10 01:09:33;;;;;;;9.82;3.17;;;13.50;94.60;;;;;;5038086;28;20104;-59
2022/06/10 01:12:25;;;;;;;9.43;3.30;;;13.40;95.00;;;;;;5035655;28;20354;-59
2022/06/10 01:15:14;;;;;;;7.65;2.83;;;13.40;95.20;;;;;;5034927;28;20067;-59
2022/06/10 01:18:01;;;;;;;9.90;3.25;;;13.40;95.50;;;;;;5031693;28;20434;-59
2022/06/10 01:21:03;;;;;;;6.70;2.97;;;13.30;95.80;;;;;;5037625;28;20025;-59
2022/06/10 01:24:00;;;;;;;12.00;3.58;;;13.30;95.90;;;;;;5029478;28;20021;-60
2022/06/10 01:26:31;;;;;;;7.63;4.05;;;13.30;96.40;;;;;;5032112;28;20018;-59
2022/06/10 01:29:42;;;;;;;8.38;3.78;;;13.20;96.80;;;;;;5036692;28;20148;-59
2022/06/10 01:32:27;;;;;;;10.05;3.58;;;13.20;97.40;;;;;;5032004;28;20367;-60
2022/06/10 01:35:08;;;;;;;12.00;4.15;;;13.10;97.60;;;;;;5037601;28;20033;-59
2022/06/10 01:37:42;;;;;;;6.00;3.42;;;13.10;97.80;;;;;;5033718;28;20045;-59
2022/06/10 01:40:32;;;;;;;8.02;3.50;;;13.10;98.00;;;;;;5031793;28;20032;-59
2022/06/10 01:43:16;;;;;;;11.90;4.03;;;13.20;98.10;;;;;;5034371;28;20025;-59
2022/06/10 01:45:54;;;;;;;7.35;3.53;;;13.10;98.20;;;;;;5038446;28;20032;-59
2022/06/10 01:48:29;;;;;;;6.18;3.25;;;13.10;98.50;;;;;;5036923;28;20107;-59
2022/06/10 01:51:05;;;;;;;9.98;4.18;;;13.10;98.70;;;;;;5034632;28;20025;-59
2022/06/10 01:54:04;;;;;;;9.65;4.18;;;13.10;98.90;;;;;;5034154;28;20592;-59
2022/06/10 01:56:35;;;;;;;8.05;3.65;;;13.10;98.90;;;;;;5031215;28;20405;-59
2022/06/10 01:59:22;;;;;;;7.80;3.45;;;13.10;99.20;;;;;;5041860;28;20392;-60
2022/06/10 02:02:02;;;;;;;9.63;4.68;;;13.10;99.30;;;;;;5034908;28;20452;-59
2022/06/10 02:04:31;;;;;;;6.10;3.42;;;13.10;99.60;;;;;;5036752;28;20026;-59
2022/06/10 02:07:12;;;;;;;8.15;3.83;;;13.10;99.80;;;;;;5059881;28;20484;-59
2022/06/10 02:09:47;;;;;;;6.65;3.20;;;13.10;99.90;;;;;;5032402;28;20033;-59
2022/06/10 02:12:28;;;;;;;7.72;3.70;;;13.20;99.90;;;;;;5031783;28;20095;-59
2022/06/10 02:14:59;;;;;;;9.13;3.42;;;13.20;99.80;;;;;;5039869;28;20024;-59
2022/06/10 02:17:31;;;;;;;7.13;3.90;;;13.20;99.90;;;;;;5029742;28;20056;-59
2022/06/10 02:19:59;;;;;;;13.27;3.88;;;13.20;99.90;;;;;;5044396;28;20021;-59
2022/06/10 02:22:41;;;;;;;6.97;3.42;;;13.20;99.90;;;;;;5033684;28;20089;-59
2022/06/10 02:25:22;;;;;;;8.48;3.65;;;13.30;99.90;;;;;;5033626;28;20496;-59
2022/06/10 02:27:58;;;;;;;11.07;4.00;;;13.30;99.90;;;;;;5036800;28;20481;-59
2022/06/10 02:30:43;;;;;;;12.07;3.67;;;13.30;99.90;;;;;;5035987;28;20018;-59
2022/06/10 02:33:10;;;;;;;7.25;3.30;;;13.40;99.90;;;;;;5034003;28;20026;-59
2022/06/10 02:36:19;;;;;;;8.45;3.70;;;13.40;99.90;;;;;;5050330;28;20428;-59
2022/06/10 02:38:53;;;;;;;10.65;3.70;;;13.40;99.90;;;;;;5032411;28;20041;-59
2022/06/10 02:41:49;;;;;;;7.93;3.08;;;13.50;99.90;;;;;;5034237;28;20037;-59
2022/06/10 02:44:50;;;;;;;9.18;2.95;;;13.50;99.90;;;;;;5037884;28;20033;-60
2022/06/10 02:47:28;;;;;;;11.10;3.38;;;13.50;99.90;;;;;;5033389;28;20468;-59
2022/06/10 02:49:55;;;;;;;9.82;2.92;;;13.60;99.90;;;;;;5044014;28;20021;-59
2022/06/10 02:52:24;;;;;;;9.93;3.35;;;13.60;99.90;;;;;;5036490;28;20060;-59
2022/06/10 02:54:49;;;;;;;8.80;2.97;;;13.70;99.90;;;;;;5036199;28;20036;-59
2022/06/10 02:57:23;;;;;;;11.15;3.13;;;13.70;99.90;;;;;;5051565;28;20033;-59
2022/06/10 03:02:54;;;;;;;8.50;2.63;;;13.80;99.90;;;;;;5030110;28;20044;-59
2022/06/10 03:05:36;;;;;;;7.22;3.08;;;13.80;99.90;;;;;;5035355;28;20112;-59
2022/06/10 03:08:23;;;;;;;10.50;2.65;;;13.90;99.90;;;;;;5044559;28;20108;-59
2022/06/10 03:11:01;;;;;;;9.63;2.60;;;13.90;99.90;;;;;;5046447;28;20033;-59
2022/06/10 03:13:45;;;;;;;11.82;3.40;;;13.90;99.90;;;;;;5047557;28;20025;-59
2022/06/10 03:16:50;;;;;;;14.80;4.15;;;13.90;99.90;;;;;;5031296;28;20022;-59
2022/06/10 03:19:30;;;;;;;7.68;3.55;;;14.00;99.90;;;;;;5032511;28;20059;-59
2022/06/10 03:22:29;;;;;;;7.85;3.20;;;13.90;99.90;;;;;;5033567;28;20215;-59
2022/06/10 03:25:32;;;;;;;8.82;2.72;;;13.90;99.90;;;;;;5033029;28;20063;-59
2022/06/10 03:28:09;;;;;;;12.20;3.08;;;13.90;99.90;;;;;;5035697;28;20030;-64
2022/06/10 03:30:40;;;;;;;10.93;3.40;;;13.90;99.90;;;;;;5040365;28;20025;-64
2022/06/10 03:33:15;;;;;;;6.57;2.70;;;13.90;99.90;;;;;;5029420;28;20022;-64
2022/06/10 03:35:46;;;;;;;10.18;3.53;;;13.90;99.90;;;;;;5029380;28;20703;-64
2022/06/10 03:38:12;;;;;;;12.02;3.53;;;14.00;99.90;;;;;;5034033;28;20500;-64
2022/06/10 03:40:39;;;;;;;8.25;3.65;;;14.00;99.90;;;;;;5034361;28;20021;-64
2022/06/10 03:43:07;;;;;;;6.80;3.03;;;14.10;99.90;;;;;;5033272;28;20036;-64
2022/06/10 03:45:43;;;;;;;7.03;2.60;;;14.10;99.90;;;;;;5027994;28;20029;-64
2022/06/10 03:48:14;;;;;;;7.68;2.63;;;14.20;99.90;;;;;;5028921;28;20029;-64
2022/06/10 03:50:40;;;;;;;4.55;1.58;;;14.20;99.90;;;;;;5029219;28;20099;-64
2022/06/10 03:53:06;;;;;;;5.55;2.42;;;14.30;99.90;;;;;;5028757;28;20489;-64
2022/06/10 03:55:32;;;;;;;6.78;1.90;;;14.30;99.90;;;;;;5034553;28;20030;-64
2022/06/10 03:57:58;;;;;;;5.32;2.25;;;14.30;99.90;;;;;;5033329;28;20037;-64
2022/06/10 04:00:26;;;;;;;6.68;2.15;;;14.40;99.90;;;;;;5028699;28;20041;-64
2022/06/10 04:02:52;;;;;;;5.75;2.08;;;14.40;99.90;;;;;;5031893;28;20378;-63
2022/06/10 04:05:19;;;;;;;7.88;2.55;;;14.40;99.90;;;;;;5031752;28;20496;-64
2022/06/10 04:07:45;;;;;;;9.27;2.72;;;14.40;99.90;;;;;;5037009;28;20518;-64
2022/06/10 04:10:14;;;;;;;7.55;2.75;;;14.40;99.90;;;;;;5031703;28;20614;-64
2022/06/10 04:12:40;;;;;;;9.15;2.17;;;14.40;99.90;;;;;;5031421;28;20025;-64
2022/06/10 04:15:06;;;;;;;4.90;1.70;;;14.40;99.90;;;;;;5030367;28;20028;-64
2022/06/10 04:17:32;;;;;;;8.32;1.90;;;14.40;99.90;;;;;;5032910;28;20021;-64
2022/06/10 04:19:59;;;;;;;6.97;1.95;;;14.50;99.90;;;;;;5038130;28;20021;-64
2022/06/10 04:22:26;;;;;;;9.98;2.15;;;14.50;99.90;;;;;;5030971;28;20026;-64
2022/06/10 04:24:54;;;;;;;6.57;1.80;;;14.50;99.90;;;;;;5033989;28;20231;-64
2022/06/10 04:27:19;;;;;;;5.78;1.92;;;14.50;99.90;;;;;;5037054;28;20239;-63
2022/06/10 04:29:45;;;;;;;3.65;1.38;;;14.50;99.90;;;;;;5038713;28;20028;-63
2022/06/10 04:32:10;;;;;;;3.95;1.40;;;14.60;99.90;;;;;;5036443;28;20021;-63
2022/06/10 04:34:36;;;;;;;5.43;1.70;;;14.60;99.90;;;;;;5031016;28;20026;-63
2022/06/10 04:37:03;;;;;;;5.97;2.10;;;14.60;99.90;;;;;;5032064;28;20028;-63
2022/06/10 04:39:29;;;;;;;9.43;2.28;;;14.50;99.90;;;;;;5031201;28;20068;-63
2022/06/10 04:41:54;;;;;;;12.55;3.28;;;14.50;99.90;;;;;;5035077;28;20502;-63
2022/06/10 04:44:20;;;;;;;7.28;3.47;;;14.50;99.90;;;;;;5031958;28;20107;-63
2022/06/10 04:46:46;;;;;;;10.10;3.55;;;14.40;99.90;;;;;;5029244;28;20068;-63
2022/06/10 04:49:12;;;;;;;6.68;2.75;;;14.40;99.90;;;;;;5031652;28;20115;-63
2022/06/10 04:51:38;;;;;;;7.88;3.53;;;14.40;99.90;;;;;;5030326;28;20065;-64
2022/06/10 04:54:05;;;;;;;7.40;2.88;;;14.40;99.90;;;;;;5028039;28;20041;-63
2022/06/10 04:56:31;;;;;;;8.18;3.10;;;14.40;99.90;;;;;;5035266;28;20013;-64
2022/06/10 04:58:57;;;;;;;10.25;3.33;;;14.50;99.90;;;;;;5026967;28;20025;-64
2022/06/10 05:01:23;;;;;;;6.63;2.83;;;14.50;99.90;;;;;;5030829;28;20061;-63
2022/06/10 05:03:48;;;;;;;10.35;3.25;;;14.50;99.90;;;;;;5038502;28;20033;-63
2022/06/10 05:06:14;;;;;;;9.65;3.38;;;14.50;99.90;;;;;;5030210;28;20103;-63
2022/06/10 05:08:40;;;;;;;6.93;2.60;;;14.50;99.90;;;;;;5033658;28;20548;-63
2022/06/10 05:11:07;;;;;;;12.48;3.42;;;14.60;99.90;;;;;;5036209;28;20028;-63
2022/06/10 05:13:33;;;;;;;9.43;3.33;;;14.60;99.90;;;;;;5031252;28;20048;-64
2022/06/10 05:15:58;;;;;;;8.85;3.55;;;14.60;99.90;;;;;;5032485;28;20047;-64
2022/06/10 05:18:25;;;;;;;10.15;3.60;;;14.70;99.90;;;;;;5029875;28;20068;-64
2022/06/10 05:20:51;;;;;;;7.70;3.63;;;14.70;99.90;;;;;;5048552;28;20033;-64
2022/06/10 05:23:18;;;;;;;10.70;3.22;;;14.70;99.90;;;;;;5054763;28;20078;-63
2022/06/10 05:25:43;;;;;;;7.93;4.10;;;14.70;99.90;;;;;;5035010;28;20029;-64
2022/06/10 05:28:11;;;;;;;7.55;3.70;;;14.70;99.90;;;;;;5048209;28;20662;-63
2022/06/10 05:30:38;;;;;;;9.43;3.53;;;14.70;99.90;;;;;;5041008;28;20025;-64
2022/06/10 05:33:05;;;;;;;10.20;3.30;;;14.80;99.90;;;;;;5041966;28;20072;-63
2022/06/10 05:35:31;;;;;;;9.57;3.67;;;14.80;99.90;;;;;;5035418;28;20071;-64
2022/06/10 05:37:57;;;;;;;9.65;3.58;;;14.90;99.90;;;;;;5037244;28;20037;-64
2022/06/10 05:40:26;;;;;;;7.45;3.53;;;14.90;99.90;;;;;;5041693;28;20021;-64
2022/06/10 05:42:52;;;;;;;9.60;3.47;;;15.00;99.90;;;;;;5049959;28;20025;-64
2022/06/10 05:45:19;;;;;;;8.80;3.67;;;15.10;99.90;;;;;;5050938;28;20061;-64
2022/06/10 05:47:47;;;;;;;11.27;3.50;;;15.20;99.90;;;;;;5045009;28;20567;-64
2022/06/10 05:50:17;;;;;;;7.60;2.90;;;15.20;99.90;;;;;;5042541;28;20087;-64
2022/06/10 05:52:43;;;;;;;12.80;3.30;;;15.30;99.90;;;;;;5041813;28;20080;-63
2022/06/10 05:55:10;;;;;;;9.73;3.85;;;15.30;99.90;;;;;;5047774;28;20056;-64
2022/06/10 05:57:37;;;;;;;12.98;3.20;;;15.40;99.90;;;;;;5046789;28;20397;-64
2022/06/10 06:00:05;;;;;;;10.27;3.42;;;15.50;99.90;;;;;;5054692;28;20531;-64
2022/06/10 06:02:31;;;;;;;10.98;2.70;;;15.50;99.90;;;;;;5043280;28;20486;-64
2022/06/10 06:04:58;;;;;;;11.30;2.92;;;15.50;99.90;;;;;;5048122;28;20022;-64
2022/06/10 06:07:26;;;;;;;12.68;3.40;;;15.60;99.90;;;;;;5036540;28;20014;-64
2022/06/10 06:09:52;;;;;;;12.95;3.28;;;15.60;99.90;;;;;;5032994;28;20018;-64
2022/06/10 06:12:18;;;;;;;9.73;3.53;;;15.70;99.90;;;;;;5045428;28;20028;-64
2022/06/10 06:14:44;;;;;;;12.05;3.30;;;15.80;99.90;;;;;;5035409;28;20022;-64
2022/06/10 06:17:11;;;;;;;9.60;3.03;;;15.90;99.90;;;;;;5044989;28;20515;-64
2022/06/10 06:19:37;;;;;;;9.45;3.20;;;16.00;99.90;;;;;;5044015;28;20028;-64
2022/06/10 06:22:03;;;;;;;10.35;3.17;;;16.10;99.90;;;;;;5052677;28;20021;-64
2022/06/10 06:24:28;;;;;;;10.00;3.05;;;16.10;99.90;;;;;;5039243;28;20049;-64
2022/06/10 06:26:54;;;;;;;14.88;3.50;;;16.20;99.90;;;;;;5052958;28;20472;-64
2022/06/10 06:29:21;;;;;;;10.77;2.70;;;16.30;99.90;;;;;;5050909;28;20021;-64
2022/06/10 06:31:46;;;;;;;12.00;2.78;;;16.30;99.90;;;;;;5043037;28;20036;-64
2022/06/10 06:34:12;;;;;;;6.57;2.42;;;16.40;99.90;;;;;;5037696;28;20100;-64
2022/06/10 06:36:45;;;;;;;10.27;2.25;;;16.50;99.90;;;;;;5052988;28;20025;-64
2022/06/10 06:39:11;;;;;;;7.10;2.33;;;16.50;99.90;;;;;;5047151;28;20493;-64
2022/06/10 06:41:37;;;;;;;10.23;2.63;;;16.60;99.90;;;;;;5050636;28;20067;-64
2022/06/10 06:44:05;;;;;;;12.10;3.63;;;16.60;99.90;;;;;;5044761;28;20025;-64
2022/06/10 06:46:33;;;;;;;7.80;2.47;;;16.60;99.90;;;;;;5046874;28;20032;-64
2022/06/10 06:48:59;;;;;;;7.68;1.77;;;16.60;99.90;;;;;;5045246;28;20029;-64
2022/06/10 06:51:26;;;;;;;8.93;2.30;;;16.70;99.90;;;;;;5036772;28;20029;-64
2022/06/10 06:53:51;;;;;;;7.68;2.08;;;16.70;99.90;;;;;;5033911;28;20049;-64
2022/06/10 06:56:17;;;;;;;8.40;2.78;;;16.70;99.90;;;;;;5033714;28;20044;-64
2022/06/10 06:58:42;;;;;;;9.23;2.88;;;16.80;99.90;;;;;;5036755;28;20048;-64
2022/06/10 07:01:08;;;;;;;6.63;1.83;;;16.80;99.90;;;;;;5043581;28;20485;-64
2022/06/10 07:03:33;;;;;;;6.72;1.70;;;16.80;99.90;;;;;;5035322;28;20036;-64
2022/06/10 07:05:59;;;;;;;8.32;2.20;;;16.90;99.90;;;;;;5043415;28;20144;-64
2022/06/10 07:08:31;;;;;;;5.63;1.80;;;16.90;99.80;;;;;;5047966;28;20017;-64
2022/06/10 07:10:58;;;;;;;8.02;1.73;;;16.90;99.50;;;;;;5046298;28;20044;-64
2022/06/10 07:13:24;;;;;;;8.70;1.73;;;16.90;99.80;;;;;;5032444;28;20022;-64
2022/06/10 07:15:50;;;;;;;7.13;1.52;;;17.00;99.50;;;;;;5035175;28;20393;-64
2022/06/10 07:18:16;;;;;;;9.05;1.63;;;17.00;99.50;;;;;;5038330;28;20029;-64
2022/06/10 07:20:41;;;;;;;7.38;1.83;;;17.10;99.30;;;;;;5041045;28;20112;-64
2022/06/10 07:23:07;;;;;;;6.80;1.48;;;17.10;99.20;;;;;;5049422;28;20024;-64
2022/06/10 07:25:33;;;;;;;5.38;1.65;;;17.20;99.00;;;;;;5047914;28;20028;-64
2022/06/10 07:27:59;;;;;;;7.47;2.03;;;17.30;98.80;;;;;;5045471;28;20029;-64
2022/06/10 07:30:27;;;;;;;7.20;2.03;;;17.40;98.50;;;;;;5045441;28;20027;-64
2022/06/10 07:32:53;;;;;;;9.18;1.63;;;17.50;98.60;;;;;;5046095;28;20017;-64
2022/06/10 07:35:20;;;;;;;10.38;1.63;;;17.50;98.30;;;;;;5050281;28;20495;-64
2022/06/10 07:37:47;;;;;;;3.83;1.33;;;17.60;98.00;;;;;;5048529;28;20144;-64
2022/06/10 07:43:03;;;;;;;7.53;1.40;;;17.80;97.60;;;;;;5048566;28;20028;-64
2022/06/10 07:45:28;;;;;;;7.25;1.42;;;17.90;97.70;;;;;;5049135;28;20033;-64
2022/06/10 07:47:54;;;;;;;4.18;1.10;;;18.00;97.30;;;;;;5045884;28;20396;-64
2022/06/10 07:50:22;;;;;;;9.00;2.20;;;18.00;97.10;;;;;;5049546;28;20021;-64
2022/06/10 07:52:49;;;;;;;5.63;1.30;;;18.10;96.60;;;;;;5046297;28;20048;-64
2022/06/10 07:55:15;;;;;;;7.05;1.58;;;18.20;96.20;;;;;;5047010;28;20384;-64
2022/06/10 07:57:41;;;;;;;7.07;1.40;;;18.30;95.50;;;;;;5046222;28;20032;-64
2022/06/10 08:00:10;;;;;;;7.13;1.45;;;18.40;95.90;;;;;;5050814;28;20033;-64
2022/06/10 08:02:37;;;;;;;7.63;1.20;;;18.40;95.40;;;;;;5036406;28;20447;-65
2022/06/10 08:05:03;;;;;;;4.53;0.95;;;18.60;94.90;;;;;;5045829;28;20018;-65
2022/06/10 08:07:29;;;;;;;5.63;1.10;;;18.70;94.90;;;;;;5046478;28;20029;-65
2022/06/10 08:09:55;;;;;;;7.43;1.35;;;18.80;94.90;;;;;;5035187;28;20017;-65
2022/06/10 08:12:20;;;;;;;4.68;1.52;;;18.90;94.40;;;;;;5030643;28;20113;-65
2022/06/10 08:14:46;;;;;;;5.72;1.35;;;19.00;94.30;;;;;;5032734;28;20022;-65
2022/06/10 08:17:11;;;;;;;5.57;1.35;;;19.00;94.40;;;;;;5039240;28;20477;-65
2022/06/10 08:19:37;;;;;;;4.82;0.95;;;19.10;93.60;;;;;;5032643;28;20017;-65
2022/06/10 08:24:46;;;;;;;5.38;1.05;;;19.20;94.10;;;;;;5033014;28;20037;-65
2022/06/10 08:27:12;;;;;;;3.13;0.98;;;19.30;93.50;;;;;;5032748;28;20025;-65
2022/06/10 08:29:37;;;;;;;4.38;1.10;;;19.40;93.40;;;;;;5032701;28;20026;-65
2022/06/10 08:32:03;;;;;;;6.22;1.10;;;19.50;92.90;;;;;;5039894;28;20112;-65
2022/06/10 08:34:29;;;;;;;2.97;1.00;;;19.60;92.70;;;;;;5046827;28;20025;-65
2022/06/10 08:36:54;;;;;;;6.93;1.17;;;19.70;92.70;;;;;;5044208;28;20064;-65
2022/06/10 08:39:20;;;;;;;6.20;1.38;;;19.90;92.40;;;;;;5050367;28;20473;-65
2022/06/10 08:41:54;;;;;;;5.70;1.42;;;20.00;91.50;;;;;;5048642;28;20028;-65
2022/06/10 08:44:59;;;;;;;2.20;0.98;;;20.00;91.20;;;;;;5048140;28;20028;-65
2022/06/10 08:47:40;;;;;;;3.42;1.15;;;20.20;91.50;;;;;;5042532;28;20060;-65
2022/06/10 08:50:15;;;;;;;4.22;0.90;;;20.30;90.90;;;;;;5043902;28;20013;-65
2022/06/10 08:53:18;;;;;;;4.22;0.70;;;20.40;89.40;;;;;;5049466;28;20441;-65
2022/06/10 08:56:06;;;;;;;7.75;1.60;;;20.50;90.00;;;;;;5052426;28;20047;-65
2022/06/10 08:58:37;;;;;;;3.83;0.90;;;20.50;89.70;;;;;;5051418;28;20100;-65
2022/06/10 09:01:07;;;;;;;9.98;1.17;;;20.50;86.60;;;;;;5051568;28;20059;-65
2022/06/10 09:03:42;;;;;;;7.07;1.10;;;20.40;86.40;;;;;;5049663;28;20024;-65
2022/06/10 09:06:38;;;;;;;6.20;0.95;;;20.50;87.00;;;;;;5047487;28;20100;-65
2022/06/10 09:09:07;;;;;;;8.25;1.60;;;20.70;87.90;;;;;;5049787;28;20565;-65
2022/06/10 09:11:46;;;;;;;4.93;0.90;;;20.70;87.30;;;;;;5044940;28;20025;-65
2022/06/10 09:14:23;;;;;;;3.22;0.80;;;21.00;88.30;;;;;;5047995;28;20032;-65
2022/06/10 09:16:59;;;;;;;6.20;1.40;;;21.20;86.50;;;;;;5046529;28;20500;-65
2022/06/10 09:19:49;;;;;;;6.03;1.10;;;21.30;83.00;;;;;;5048652;28;20529;-65
2022/06/10 09:22:34;;;;;;;7.45;1.52;;;21.20;82.80;;;;;;5044478;28;20057;-66
2022/06/10 09:25:10;;;;;;;6.72;1.38;;;21.10;82.70;;;;;;5035456;28;20035;-65
2022/06/10 09:27:41;;;;;;;9.30;1.58;;;21.20;84.00;;;;;;5035580;28;20025;-65
2022/06/10 09:30:11;;;;;;;7.95;1.30;;;21.20;83.70;;;;;;5038343;28;20052;-65
2022/06/10 09:33:14;;;;;;;5.43;1.02;;;21.40;83.20;;;;;;5034464;28;20021;-65
2022/06/10 09:36:02;;;;;;;7.50;1.35;;;21.50;83.30;;;;;;5041767;28;20095;-65
2022/06/10 09:38:46;;;;;;;12.35;2.47;;;21.60;83.30;;;;;;5027288;28;20033;-65
2022/06/10 09:41:39;;;;;;;5.32;1.40;;;21.70;82.70;;;;;;5041043;28;20033;-65
2022/06/10 09:44:11;;;;;;;8.52;1.52;;;21.60;80.50;;;;;;5055349;28;20021;-65
2022/06/10 09:46:58;;;;;;;6.55;1.42;;;21.50;81.50;;;;;;5038470;28;20537;-65
2022/06/10 09:50:00;;;;;;;4.63;0.90;;;21.50;81.90;;;;;;5041606;28;20047;-65
2022/06/10 09:53:04;;;;;;;7.07;1.48;;;21.70;82.00;;;;;;5049770;28;20076;-65
2022/06/10 09:56:07;;;;;;;5.70;1.30;;;21.80;81.40;;;;;;5049584;28;20210;-66
2022/06/10 09:58:56;;;;;;;8.65;1.92;;;21.80;80.00;;;;;;5050567;28;20055;-65
2022/06/10 10:01:33;;;;;;;;;;;21.60;79.40;;;;;;5048488;28;20098;-65
2022/06/10 10:04:44;;;;;;;5.43;1.13;;;21.50;79.90;;;;;;5047742;28;19927;-65
2022/06/10 10:07:15;;;;;;;5.32;1.50;;;21.60;80.30;;;;;;5043011;28;20432;-65
2022/06/10 10:09:52;;;;;;;8.10;2.75;;;21.70;80.60;;;;;;5051238;28;20017;-66
2022/06/10 10:12:39;;;;;;;5.07;1.38;;;21.80;79.80;;;;;;5051945;28;20103;-66
2022/06/10 10:15:13;;;;;;;7.00;1.60;;;22.00;80.40;;;;;;5047049;28;20063;-65
2022/06/10 10:17:59;;;;;;;8.20;1.38;;;22.20;79.50;;;;;;5045082;28;20021;-66
2022/06/10 10:20:48;;;;;;;7.53;2.05;;;22.40;79.60;;;;;;5050914;28;20033;-65
2022/06/10 10:23:22;;;;;;;10.10;2.17;;;22.50;78.20;;;;;;5049303;28;20558;-65
2022/06/10 10:25:49;;;;;;;8.68;2.20;;;22.40;77.70;;;;;;5047394;28;20136;-65
2022/06/10 10:28:29;;;;;;;7.28;1.23;;;22.30;77.70;;;;;;5043189;28;20052;-65
2022/06/10 10:31:22;;;;;;;5.88;1.40;;;22.30;77.60;;;;;;5048911;28;20017;-65
2022/06/10 10:33:48;;;;;;;9.63;1.88;;;22.30;77.50;;;;;;5043096;28;20021;-65
2022/06/10 10:36:31;;;;;;;9.95;1.65;;;22.20;78.10;;;;;;5050403;28;20025;-65
2022/06/10 10:38:57;;;;;;;8.93;2.00;;;22.40;78.20;;;;;;5047464;28;20032;-65
2022/06/10 10:41:33;;;;;;;13.88;2.20;;;22.30;79.70;;;;;;5051283;28;20389;-65
2022/06/10 10:44:07;;;;;;;7.18;1.52;;;22.30;78.10;;;;;;5045820;28;20032;-65
2022/06/10 10:46:56;;;;;;;6.28;1.42;;;22.30;78.70;;;;;;5033849;28;20477;-65
2022/06/10 10:49:30;;;;;;;9.98;1.95;;;22.40;79.30;;;;;;5046336;28;20032;-65
2022/06/10 10:51:56;;;;;;;4.97;1.77;;;22.50;78.60;;;;;;5047446;28;20091;-64
2022/06/10 10:54:30;;;;;;;5.65;1.48;;;22.70;78.60;;;;;;5043162;28;20033;-65
2022/06/10 10:56:57;;;;;;;7.03;1.80;;;22.90;78.80;;;;;;5046845;28;20463;-65
2022/06/10 10:59:33;;;;;;;5.70;1.55;;;22.90;78.30;;;;;;5036056;28;20036;-65
2022/06/10 11:02:00;;;;;;;9.85;1.95;;;23.00;76.80;;;;;;5038890;28;20018;-65
2022/06/10 11:04:34;;;;;;;5.40;1.50;;;23.00;76.40;;;;;;5044089;28;20053;-65
2022/06/10 11:07:15;;;;;;;5.63;1.70;;;23.00;76.30;;;;;;5045125;28;20476;-65
2022/06/10 11:09:55;;;;;;;5.85;1.48;;;23.00;75.60;;;;;;5046764;28;20564;-65
2022/06/10 11:12:27;;;;;;;6.75;1.55;;;22.90;75.90;;;;;;5044316;28;20032;-65
2022/06/10 11:15:06;;;;;;;6.85;1.60;;;22.70;75.90;;;;;;5034917;28;20041;-65
2022/06/10 11:17:35;;;;;;;6.63;1.88;;;22.60;76.50;;;;;;5039029;28;20086;-65
2022/06/10 11:20:23;;;;;;;6.00;1.50;;;22.40;76.80;;;;;;5036743;28;20032;-65
2022/06/10 11:22:49;;;;;;;7.22;1.98;;;22.40;77.50;;;;;;5052631;28;20075;-65
2022/06/10 11:25:26;;;;;;;6.13;1.67;;;22.50;78.00;;;;;;5056319;28;20021;-65
2022/06/10 11:27:57;;;;;;;9.85;2.33;;;22.80;77.80;;;;;;5042472;28;20030;-65
2022/06/10 11:30:32;;;;;;;8.93;1.92;;;22.90;76.70;;;;;;5035544;28;20469;-65
2022/06/10 11:33:03;;;;;;;7.70;1.33;;;23.20;76.50;;;;;;5062040;28;20020;-65
2022/06/10 11:35:40;;;;;;;4.65;1.30;;;23.30;76.20;;;;;;5040473;28;20017;-65
2022/06/10 11:38:21;;;;;;;5.45;1.75;;;23.40;76.00;;;;;;5042094;28;20092;-65
2022/06/10 11:40:47;;;;;;;7.28;2.00;;;23.60;75.90;;;;;;5037840;28;20023;-65
2022/06/10 11:43:33;;;;;;;9.95;1.73;;;23.60;75.70;;;;;;5051784;28;20029;-65
2022/06/10 11:46:04;;;;;;;6.75;2.03;;;23.80;74.70;;;;;;5035089;28;20036;-65
2022/06/10 11:48:39;;;;;;;6.85;1.33;;;23.70;74.50;;;;;;5045097;28;20473;-65
2022/06/10 11:51:27;;;;;;;6.70;2.25;;;23.90;74.30;;;;;;5039102;28;20021;-65
2022/06/10 11:53:59;;;;;;;5.55;1.77;;;23.90;74.90;;;;;;5036817;28;20307;-65
2022/06/10 12:00:07;;;;;;;6.32;2.13;;;23.50;74.20;;;;;;5052100;28;20104;-65
2022/06/10 12:02:42;;;;;;;7.13;1.75;;;23.20;74.70;;;;;;5029496;28;20060;-65
2022/06/10 12:05:26;;;;;;;5.60;1.40;;;23.10;75.40;;;;;;5044631;28;20031;-65
2022/06/10 12:08:07;;;;;;;5.65;2.00;;;23.20;75.20;;;;;;5045927;28;20020;-65
2022/06/10 12:10:45;;;;;;;5.03;1.83;;;23.20;75.20;;;;;;5052201;28;20086;-65
2022/06/10 12:13:12;;;;;;;8.82;2.97;;;23.30;75.10;;;;;;5045304;28;20025;-65
2022/06/10 12:15:44;;;;;;;9.60;2.63;;;23.20;74.80;;;;;;5050302;28;20016;-66
2022/06/10 12:18:11;;;;;;;6.10;1.70;;;23.20;75.60;;;;;;5043382;28;20060;-65
2022/06/10 12:20:43;;;;;;;5.32;1.50;;;23.30;75.90;;;;;;5046576;28;20105;-65
2022/06/10 12:23:27;;;;;;;4.20;1.90;;;23.60;75.60;;;;;;5051026;28;20020;-65
2022/06/10 12:26:08;;;;;;;7.32;1.88;;;23.80;75.40;;;;;;5049885;28;20429;-65
2022/06/10 12:28:54;;;;;;;5.57;1.33;;;24.00;74.40;;;;;;5046748;28;20021;-65
2022/06/10 12:32:01;;;;;;;5.68;1.48;;;24.20;73.80;;;;;;5042002;28;20502;-65
2022/06/10 12:34:45;;;;;;;3.47;1.48;;;24.30;72.80;;;;;;5046725;28;20377;-65
2022/06/10 12:37:29;;;;;;;5.47;1.25;;;24.40;72.50;;;;;;5049139;28;20503;-66
2022/06/10 12:40:05;;;;;;;6.60;1.55;;;24.50;72.30;;;;;;5049357;28;20464;-65
2022/06/10 12:42:37;;;;;;;3.00;1.45;;;24.60;72.00;;;;;;5050812;28;20566;-65
2022/06/10 12:45:05;;;;;;;5.50;1.42;;;24.50;70.40;;;;;;5044626;28;20030;-65
2022/06/10 12:47:36;;;;;;;3.15;1.45;;;24.40;71.10;;;;;;5053159;28;20070;-66
2022/06/10 12:50:16;;;;;;;3.65;1.20;;;24.40;70.70;;;;;;5053715;28;20021;-65
2022/06/10 12:53:00;;;;;;;5.50;1.40;;;24.50;70.80;;;;;;5042556;28;20052;-65
2022/06/10 12:55:43;;;;;;;5.57;1.40;;;24.70;70.70;;;;;;5045561;28;20052;-65
2022/06/10 12:58:38;;;;;;;3.35;1.40;;;24.80;69.90;;;;;;5051851;28;20032;-65
2022/06/10 13:01:18;;;;;;;3.95;1.30;;;24.80;70.00;;;;;;5033128;28;20026;-65
2022/06/10 13:03:46;;;;;;;6.75;1.30;;;24.90;70.10;;;;;;5054927;28;20107;-65
2022/06/10 13:06:34;;;;;;;2.60;1.13;;;25.00;69.70;;;;;;5050940;28;20032;-66
2022/06/10 13:09:11;;;;;;;2.35;1.17;;;25.20;69.00;;;;;;5058277;28;20024;-66
2022/06/10 13:11:50;;;;;;;5.57;1.40;;;25.30;68.60;;;;;;5041856;28;20017;-66
2022/06/10 13:14:22;;;;;;;4.10;1.33;;;25.40;68.30;;;;;;5044256;28;20021;-65
2022/06/10 13:17:17;;;;;;;6.30;1.50;;;25.60;68.40;;;;;;5058270;28;20381;-65
2022/06/10 13:19:55;;;;;;;4.10;1.92;;;25.80;67.40;;;;;;5046228;28;20024;-65
2022/06/10 13:22:20;;;;;;;7.18;2.03;;;25.90;67.50;;;;;;5033705;28;20477;-66
2022/06/10 13:24:52;;;;;;;5.53;2.03;;;25.80;67.10;;;;;;5037111;28;20025;-66
2022/06/10 13:27:48;;;;;;;4.85;1.70;;;25.70;66.80;;;;;;5042083;28;20014;-66
2022/06/10 13:30:28;;;;;;;6.50;2.00;;;25.40;65.90;;;;;;5034029;28;20034;-66